createdAt,value
2019-01-28T00:00:17.468Z,981.3
2019-01-28T00:00:58.370Z,981.36
2019-01-28T00:01:39.055Z,981.36
2019-01-28T00:02:20.359Z,981.31
2019-01-28T00:03:00.884Z,981.39
2019-01-28T00:03:41.281Z,981.35
2019-01-28T00:04:22.947Z,981.29
2019-01-28T00:05:04.208Z,981.35
2019-01-28T00:05:44.718Z,981.38
2019-01-28T00:06:25.461Z,981.42
2019-01-28T00:07:05.798Z,981.36
2019-01-28T00:07:47.476Z,981.34
2019-01-28T00:08:29.204Z,981.38
2019-01-28T00:09:11.865Z,981.41
2019-01-28T00:09:52.576Z,981.39
2019-01-28T00:10:34.481Z,981.27
2019-01-28T00:11:15.750Z,981.08
2019-01-28T00:12:02.659Z,981.35
2019-01-28T00:12:45.131Z,981.35
2019-01-28T00:13:28.167Z,981.33
2019-01-28T00:14:10.359Z,981.3
2019-01-28T00:14:51.461Z,981.41
2019-01-28T00:15:34.327Z,981.36
2019-01-28T00:16:18.416Z,981.34
2019-01-28T00:16:58.924Z,981.37
2019-01-28T00:17:43.534Z,981.44
2019-01-28T00:18:27.676Z,981.37
2019-01-28T00:19:10.045Z,981.35
2019-01-28T00:19:52.103Z,981.41
2019-01-28T00:20:36.578Z,981.38
2019-01-28T00:21:18.304Z,981.42
2019-01-28T00:21:59.385Z,981.39
2019-01-28T00:22:43.591Z,981.32
2019-01-28T00:23:24.897Z,981.35
2019-01-28T00:24:06.067Z,981.35
2019-01-28T00:24:48.872Z,981.32
2019-01-28T00:25:31.177Z,981.31
2019-01-28T00:26:11.775Z,981.41
2019-01-28T00:28:18.774Z,981.32
2019-01-28T00:29:12.884Z,981.34
2019-01-28T00:30:05.981Z,981.36
2019-01-28T00:31:02.536Z,981.32
2019-01-28T00:31:58.788Z,981.35
2019-01-28T00:32:51.501Z,981.39
2019-01-28T00:33:43.805Z,981.36
2019-01-28T00:34:36.114Z,981.36
2019-01-28T00:35:28.465Z,981.32
2019-01-28T00:36:21.397Z,981.31
2019-01-28T00:37:20.743Z,981.39
2019-01-28T00:38:13.628Z,981.34
2019-01-28T00:39:05.790Z,981.33
2019-01-28T00:40:05.913Z,981.18
2019-01-28T00:40:57.831Z,981.28
2019-01-28T00:41:38.223Z,981.39
2019-01-28T00:42:21.788Z,981.28
2019-01-28T00:43:03.993Z,981.33
2019-01-28T00:43:45.764Z,981.3
2019-01-28T00:44:27.717Z,981.33
2019-01-28T00:45:08.301Z,981.3
2019-01-28T00:45:48.744Z,981.26
2019-01-28T00:46:29.301Z,981.3
2019-01-28T00:47:10.722Z,981.22
2019-01-28T00:47:51.163Z,981.25
2019-01-28T00:48:46.114Z,981.21
2019-01-28T00:49:28.751Z,981.23
2019-01-28T00:50:10.716Z,981.33
2019-01-28T00:50:51.035Z,981.26
2019-01-28T00:51:32.928Z,981.23
2019-01-28T00:52:15.921Z,981.21
2019-01-28T00:52:56.315Z,981.18
2019-01-28T00:53:36.735Z,981.21
2019-01-28T00:54:19.755Z,981.23
2019-01-28T00:54:59.519Z,981.25
2019-01-28T00:55:39.967Z,981.17
2019-01-28T00:56:22.979Z,981.1
2019-01-28T00:57:05.031Z,981.19
2019-01-28T00:57:47.120Z,981.18
2019-01-28T00:58:27.959Z,981.14
2019-01-28T00:59:09.707Z,981.16
2019-01-28T00:59:53.253Z,981.17
2019-01-28T01:00:33.419Z,981.17
2019-01-28T01:01:13.844Z,981.22
2019-01-28T01:01:55.335Z,981.18
2019-01-28T01:02:35.722Z,981.14
2019-01-28T01:03:21.458Z,981.13
2019-01-28T01:04:02.022Z,981.08
2019-01-28T01:04:42.525Z,981.13
2019-01-28T01:05:24.572Z,981.14
2019-01-28T01:06:05.995Z,980.9
2019-01-28T01:06:49.578Z,981.05
2019-01-28T01:07:30.665Z,980.96
2019-01-28T01:08:11.102Z,981.16
2019-01-28T01:08:52.830Z,981.11
2019-01-28T01:09:34.832Z,981.03
2019-01-28T01:10:16.267Z,981.11
2019-01-28T01:11:02.642Z,981.16
2019-01-28T01:11:44.967Z,981.17
2019-01-28T01:12:25.588Z,981.1
2019-01-28T01:13:07.937Z,981.01
2019-01-28T01:13:48.452Z,981.25
2019-01-28T01:14:28.826Z,981.06
2019-01-28T01:15:09.207Z,981.1
2019-01-28T01:15:49.578Z,981.13
2019-01-28T01:16:30.058Z,981.07
2019-01-28T01:17:11.683Z,980.83
2019-01-28T01:17:52.986Z,981
2019-01-28T01:18:34.290Z,981.17
2019-01-28T01:19:16.353Z,981.15
2019-01-28T01:19:56.936Z,981.1
2019-01-28T01:20:40.333Z,981.03
2019-01-28T01:21:20.849Z,981.05
2019-01-28T01:22:02.564Z,981.06
2019-01-28T01:22:43.780Z,981.02
2019-01-28T01:23:24.847Z,980.75
2019-01-28T01:24:05.780Z,981.09
2019-01-28T01:24:46.608Z,981.07
2019-01-28T01:25:28.234Z,981.07
2019-01-28T01:26:08.447Z,981.1
2019-01-28T01:26:50.560Z,980.97
2019-01-28T01:27:33.505Z,981.08
2019-01-28T01:28:14.901Z,981.09
2019-01-28T01:28:57.011Z,980.99
2019-01-28T01:29:37.539Z,981.1
2019-01-28T01:30:21.833Z,981.04
2019-01-28T01:33:01.453Z,980.95
2019-01-28T01:33:55.004Z,981.08
2019-01-28T01:34:48.082Z,981.01
2019-01-28T01:35:40.919Z,980.96
2019-01-28T01:36:35.469Z,980.87
2019-01-28T01:37:28.533Z,980.94
2019-01-28T01:38:22.463Z,980.94
2019-01-28T01:39:15.707Z,980.93
2019-01-28T01:40:09.414Z,981.09
2019-01-28T01:41:04.107Z,981.06
2019-01-28T01:41:57.888Z,981.05
2019-01-28T01:42:53.933Z,980.99
2019-01-28T01:43:51.816Z,981.01
2019-01-28T01:44:46.510Z,980.9
2019-01-28T01:45:40.202Z,981.01
2019-01-28T01:46:40.272Z,981.04
2019-01-28T01:47:34.037Z,980.99
2019-01-28T01:48:26.773Z,980.97
2019-01-28T01:49:25.250Z,980.91
2019-01-28T01:50:17.589Z,981.02
2019-01-28T01:51:11.990Z,980.9
2019-01-28T01:52:05.976Z,980.96
2019-01-28T01:52:58.290Z,980.82
2019-01-28T01:53:52.250Z,980.87
2019-01-28T01:54:47.006Z,980.91
2019-01-28T01:55:39.813Z,980.77
2019-01-28T01:56:34.464Z,980.9
2019-01-28T01:57:28.847Z,980.96
2019-01-28T01:58:23.907Z,980.69
2019-01-28T01:59:16.278Z,980.68
2019-01-28T02:00:08.351Z,980.76
2019-01-28T02:01:01.565Z,980.78
2019-01-28T02:01:56.777Z,980.88
2019-01-28T02:02:51.197Z,980.8
2019-01-28T02:05:02.006Z,980.7
2019-01-28T02:05:54.740Z,980.74
2019-01-28T02:06:49.623Z,980.84
2019-01-28T02:07:42.160Z,980.74
2019-01-28T02:08:34.435Z,980.92
2019-01-28T02:09:29.595Z,980.77
2019-01-28T02:10:22.154Z,980.77
2019-01-28T02:11:14.922Z,980.7
2019-01-28T02:12:03.148Z,980.75
2019-01-28T02:12:43.464Z,980.7
2019-01-28T02:13:24.668Z,980.73
2019-01-28T02:14:05.988Z,980.77
2019-01-28T02:14:46.664Z,980.52
2019-01-28T02:15:29.106Z,980.7
2019-01-28T02:16:09.465Z,980.67
2019-01-28T02:16:50.661Z,980.66
2019-01-28T02:17:32.918Z,980.65
2019-01-28T02:18:14.432Z,980.62
2019-01-28T02:18:58.023Z,980.66
2019-01-28T02:19:38.711Z,980.68
2019-01-28T02:20:22.590Z,980.63
2019-01-28T02:21:04.508Z,980.63
2019-01-28T02:21:45.829Z,980.51
2019-01-28T02:22:26.273Z,980.54
2019-01-28T02:23:08.780Z,980.56
2019-01-28T02:23:50.638Z,980.59
2019-01-28T02:24:32.129Z,980.58
2019-01-28T02:25:15.246Z,980.47
2019-01-28T02:25:56.145Z,980.52
2019-01-28T02:26:37.255Z,980.59
2019-01-28T02:27:20.740Z,980.56
2019-01-28T02:28:01.297Z,980.34
2019-01-28T02:28:41.697Z,980.39
2019-01-28T02:29:22.489Z,980.65
2019-01-28T02:30:04.211Z,980.43
2019-01-28T02:30:45.504Z,980.14
2019-01-28T02:31:26.287Z,980.58
2019-01-28T02:32:07.757Z,980.42
2019-01-28T02:32:48.983Z,980.62
2019-01-28T02:33:29.444Z,980.42
2019-01-28T02:34:10.687Z,980.51
2019-01-28T02:34:52.939Z,980.43
2019-01-28T02:35:33.523Z,980.52
2019-01-28T02:36:29.370Z,980.1
2019-01-28T02:37:09.711Z,980.43
2019-01-28T02:37:50.247Z,980.23
2019-01-28T02:38:30.875Z,980.24
2019-01-28T02:39:11.197Z,980.4
2019-01-28T02:39:51.645Z,980.39
2019-01-28T02:40:32.344Z,980.13
2019-01-28T02:41:13.007Z,980.28
2019-01-28T02:41:54.263Z,980.31
2019-01-28T02:42:34.703Z,980.16
2019-01-28T02:43:15.130Z,980.27
2019-01-28T02:43:55.838Z,980.27
2019-01-28T02:44:36.738Z,980.18
2019-01-28T02:45:17.286Z,980.25
2019-01-28T02:45:57.843Z,980.01
2019-01-28T02:46:38.390Z,980.02
2019-01-28T02:47:18.896Z,980.17
2019-01-28T02:48:01.296Z,979.98
2019-01-28T02:48:41.657Z,980.09
2019-01-28T02:49:22.000Z,980.14
2019-01-28T02:50:02.581Z,980.16
2019-01-28T02:50:45.165Z,980.26
2019-01-28T02:51:25.577Z,980.12
2019-01-28T02:52:05.993Z,980.02
2019-01-28T02:52:47.400Z,979.97
2019-01-28T02:53:27.781Z,980.01
2019-01-28T02:54:08.138Z,980.15
2019-01-28T02:54:48.473Z,980.09
2019-01-28T02:55:31.001Z,980.06
2019-01-28T02:56:11.705Z,980.06
2019-01-28T02:56:53.102Z,979.97
2019-01-28T02:57:33.416Z,980.03
2019-01-28T02:58:14.916Z,979.93
2019-01-28T02:58:56.204Z,980.05
2019-01-28T02:59:38.508Z,979.93
2019-01-28T03:00:19.485Z,980.01
2019-01-28T03:00:59.766Z,979.93
2019-01-28T03:01:40.560Z,979.88
2019-01-28T03:02:21.484Z,979.92
2019-01-28T03:03:03.451Z,979.92
2019-01-28T03:03:44.645Z,979.94
2019-01-28T03:04:25.891Z,979.91
2019-01-28T03:05:07.276Z,979.71
2019-01-28T03:05:50.513Z,979.9
2019-01-28T03:06:31.766Z,979.92
2019-01-28T03:07:12.855Z,979.94
2019-01-28T03:07:54.370Z,979.67
2019-01-28T03:08:34.722Z,979.9
2019-01-28T03:09:15.247Z,979.76
2019-01-28T03:09:56.512Z,979.87
2019-01-28T03:10:36.869Z,979.83
2019-01-28T03:11:17.302Z,979.8
2019-01-28T03:11:58.045Z,979.92
2019-01-28T03:12:38.524Z,979.8
2019-01-28T03:13:20.102Z,979.8
2019-01-28T03:14:00.700Z,979.85
2019-01-28T03:14:41.096Z,979.69
2019-01-28T03:15:21.557Z,979.82
2019-01-28T03:16:01.917Z,979.54
2019-01-28T03:16:42.496Z,979.78
2019-01-28T03:17:23.055Z,979.72
2019-01-28T03:18:03.657Z,979.65
2019-01-28T03:18:44.106Z,979.73
2019-01-28T03:19:24.824Z,979.78
2019-01-28T03:20:05.428Z,979.71
2019-01-28T03:20:47.420Z,979.54
2019-01-28T03:21:28.885Z,979.81
2019-01-28T03:22:11.276Z,979.7
2019-01-28T03:22:52.638Z,979.45
2019-01-28T03:23:32.957Z,979.6
2019-01-28T03:24:13.471Z,979.36
2019-01-28T03:24:53.963Z,979.68
2019-01-28T03:25:34.240Z,979.5
2019-01-28T03:26:14.674Z,979.75
2019-01-28T03:26:55.082Z,979.67
2019-01-28T03:27:35.874Z,979.25
2019-01-28T03:28:16.174Z,979.77
2019-01-28T03:28:56.659Z,979.65
2019-01-28T03:29:37.447Z,979.64
2019-01-28T03:30:17.688Z,979.43
2019-01-28T03:30:59.299Z,979.67
2019-01-28T03:31:42.049Z,979.58
2019-01-28T03:32:27.194Z,979.67
2019-01-28T03:33:18.902Z,979.64
2019-01-28T03:34:06.778Z,979.64
2019-01-28T03:36:08.303Z,979.36
2019-01-28T03:36:48.571Z,979.69
2019-01-28T03:37:29.180Z,979.71
2019-01-28T03:38:09.810Z,979.7
2019-01-28T03:38:52.215Z,979.75
2019-01-28T03:39:32.781Z,979.75
2019-01-28T03:40:13.306Z,979.53
2019-01-28T03:40:53.794Z,979.58
2019-01-28T03:41:34.658Z,979.71
2019-01-28T03:42:15.741Z,979.74
2019-01-28T03:42:56.987Z,979.6
2019-01-28T03:43:37.438Z,979.48
2019-01-28T03:44:18.628Z,979.65
2019-01-28T03:44:59.675Z,979.63
2019-01-28T03:45:40.322Z,979.71
2019-01-28T03:46:20.553Z,979.62
2019-01-28T03:47:01.033Z,979.66
2019-01-28T03:47:41.575Z,979.46
2019-01-28T03:48:22.126Z,979.63
2019-01-28T03:49:02.495Z,979.65
2019-01-28T03:49:43.701Z,979.6
2019-01-28T03:50:24.085Z,979.59
2019-01-28T03:51:04.685Z,979.64
2019-01-28T03:51:45.211Z,979.68
2019-01-28T03:52:25.621Z,979.66
2019-01-28T03:53:06.534Z,979.71
2019-01-28T03:53:46.999Z,979.57
2019-01-28T03:54:28.983Z,979.68
2019-01-28T03:55:09.519Z,979.74
2019-01-28T03:55:49.974Z,979.75
2019-01-28T03:56:30.471Z,979.63
2019-01-28T03:57:11.044Z,979.61
2019-01-28T03:57:51.353Z,979.76
2019-01-28T03:58:31.888Z,979.8
2019-01-28T03:59:13.073Z,979.6
2019-01-28T03:59:54.453Z,979.67
2019-01-28T04:00:35.152Z,979.69
2019-01-28T04:02:34.774Z,979.74
2019-01-28T04:03:21.517Z,979.6
2019-01-28T04:04:01.158Z,979.47
2019-01-28T04:04:42.068Z,979.56
2019-01-28T04:05:23.624Z,979.76
2019-01-28T04:06:04.018Z,979.47
2019-01-28T04:06:44.718Z,979.53
2019-01-28T04:07:26.161Z,979.56
2019-01-28T04:08:06.850Z,979.54
2019-01-28T04:08:47.613Z,979.46
2019-01-28T04:09:28.539Z,979.41
2019-01-28T04:10:09.127Z,979.56
2019-01-28T04:10:49.594Z,979.65
2019-01-28T04:11:30.819Z,979.64
2019-01-28T04:12:11.704Z,979.72
2019-01-28T04:12:52.602Z,979.59
2019-01-28T04:13:34.063Z,979.68
2019-01-28T04:14:14.513Z,979.66
2019-01-28T04:14:55.294Z,979.4
2019-01-28T04:15:35.846Z,979.47
2019-01-28T04:16:16.966Z,979.57
2019-01-28T04:16:57.424Z,979.69
2019-01-28T04:19:24.697Z,979.5
2019-01-28T04:20:19.271Z,979.51
2019-01-28T04:21:14.370Z,979.51
2019-01-28T04:24:06.702Z,979.32
2019-01-28T04:24:46.679Z,979.44
2019-01-28T04:25:27.183Z,979.63
2019-01-28T04:26:10.924Z,979.54
2019-01-28T04:26:51.926Z,979.57
2019-01-28T04:27:32.542Z,979.29
2019-01-28T05:09:03.214Z,979.31
2019-01-28T05:09:46.813Z,979.2
2019-01-28T05:10:27.158Z,979.39
2019-01-28T05:11:07.623Z,979.28
2019-01-28T05:11:48.014Z,979.41
2019-01-28T05:12:28.447Z,979.49
2019-01-28T05:13:08.914Z,979.48
2019-01-28T05:13:49.384Z,979.56
2019-01-28T05:14:29.850Z,979.53
2019-01-28T05:15:10.284Z,979.4
2019-01-28T05:15:51.058Z,979.52
2019-01-28T05:16:31.529Z,979.25
2019-01-28T05:17:12.053Z,979.52
2019-01-28T05:17:52.593Z,979.57
2019-01-28T05:18:32.959Z,979.45
2019-01-28T05:19:13.389Z,979.58
2019-01-28T05:19:53.803Z,979.58
2019-01-28T05:20:34.422Z,979.36
2019-01-28T05:21:15.019Z,979.38
2019-01-28T05:21:55.729Z,979.55
2019-01-28T05:22:36.407Z,979.51
2019-01-28T05:23:16.998Z,979.56
2019-01-28T05:23:57.697Z,979.5
2019-01-28T05:24:39.782Z,979.55
2019-01-28T05:25:20.451Z,979.42
2019-01-28T05:27:28.578Z,979.48
2019-01-28T05:31:41.628Z,979.41
2019-01-28T05:32:34.928Z,979.49
2019-01-28T05:33:27.486Z,979.31
2019-01-28T05:34:23.226Z,979.47
2019-01-28T05:35:16.719Z,979.45
2019-01-28T05:36:12.378Z,979.54
2019-01-28T05:37:01.958Z,979.48
2019-01-28T05:37:42.505Z,979.37
2019-01-28T05:38:23.070Z,979.52
2019-01-28T05:39:04.515Z,979.5
2019-01-28T05:39:46.814Z,979.49
2019-01-28T05:40:28.640Z,979.17
2019-01-28T05:41:09.150Z,979.47
2019-01-28T05:41:50.575Z,979.4
2019-01-28T05:42:33.079Z,979.4
2019-01-28T05:43:13.752Z,979.33
2019-01-28T05:43:54.221Z,978.97
2019-01-28T05:44:35.601Z,979.51
2019-01-28T05:45:17.535Z,979.29
2019-01-28T05:46:02.046Z,979.42
2019-01-28T05:46:44.287Z,979.3
2019-01-28T05:47:24.892Z,979.4
2019-01-28T05:48:05.878Z,979.46
2019-01-28T05:48:46.827Z,979.54
2019-01-28T05:49:28.703Z,979.32
2019-01-28T05:50:13.964Z,979.24
2019-01-28T05:50:57.230Z,979.48
2019-01-28T05:51:38.016Z,979.34
2019-01-28T05:52:19.959Z,979.31
2019-01-28T05:53:00.787Z,979.47
2019-01-28T05:53:43.061Z,979.56
2019-01-28T05:54:29.352Z,979.58
2019-01-28T05:55:10.574Z,979.48
2019-01-28T05:55:59.147Z,979.45
2019-01-28T05:56:41.397Z,979.4
2019-01-28T05:57:24.796Z,979.44
2019-01-28T05:58:13.095Z,979.44
2019-01-28T05:58:55.934Z,979.37
2019-01-28T05:59:37.717Z,979.38
2019-01-28T06:00:21.562Z,979.65
2019-01-28T06:01:01.962Z,979.21
2019-01-28T06:01:43.255Z,979.68
2019-01-28T06:02:28.621Z,979.6
2019-01-28T06:03:17.049Z,979.3
2019-01-28T06:03:57.908Z,979.48
2019-01-28T06:04:39.097Z,979.47
2019-01-28T06:05:19.531Z,979.3
2019-01-28T06:06:01.029Z,979.32
2019-01-28T06:06:41.269Z,979.61
2019-01-28T06:07:23.512Z,979.53
2019-01-28T06:08:05.412Z,979.58
2019-01-28T06:08:45.283Z,979.59
2019-01-28T06:09:25.756Z,979.47
2019-01-28T06:10:06.540Z,979.64
2019-01-28T06:10:47.794Z,979.54
2019-01-28T06:11:28.412Z,979.62
2019-01-28T06:12:08.674Z,979.65
2019-01-28T06:12:49.199Z,979.48
2019-01-28T06:13:34.132Z,979.67
2019-01-28T06:14:14.668Z,979.51
2019-01-28T06:14:54.950Z,979.54
2019-01-28T06:15:35.480Z,979.65
2019-01-28T06:16:16.087Z,979.67
2019-01-28T06:16:58.196Z,979.55
2019-01-28T06:17:39.113Z,979.7
2019-01-28T06:18:19.547Z,979.61
2019-01-28T06:19:00.568Z,979.78
2019-01-28T06:19:40.501Z,979.74
2019-01-28T06:20:20.827Z,979.76
2019-01-28T06:21:02.077Z,979.74
2019-01-28T06:21:45.205Z,979.7
2019-01-28T06:22:26.289Z,979.68
2019-01-28T06:23:07.162Z,979.67
2019-01-28T06:23:47.932Z,979.66
2019-01-28T06:24:29.289Z,979.75
2019-01-28T06:25:12.469Z,979.73
2019-01-28T06:25:54.550Z,979.85
2019-01-28T06:26:35.297Z,979.73
2019-01-28T06:27:15.858Z,979.61
2019-01-28T06:27:57.987Z,979.76
2019-01-28T06:28:39.664Z,979.71
2019-01-28T06:29:21.413Z,979.55
2019-01-28T06:32:07.505Z,979.52
2019-01-28T06:33:01.384Z,979.63
2019-01-28T06:33:57.351Z,979.76
2019-01-28T06:34:51.773Z,979.6
2019-01-28T06:35:44.395Z,979.74
2019-01-28T06:36:38.150Z,979.81
2019-01-28T06:37:30.448Z,979.79
2019-01-28T06:38:23.139Z,979.74
2019-01-28T06:39:21.294Z,979.8
2019-01-28T06:40:15.024Z,979.87
2019-01-28T06:41:06.964Z,979.81
2019-01-28T06:42:01.125Z,979.74
2019-01-28T06:42:56.386Z,979.8
2019-01-28T06:43:49.964Z,979.7
2019-01-28T06:45:02.191Z,979.66
2019-01-28T06:46:14.595Z,979.84
2019-01-28T06:47:27.306Z,979.84
2019-01-28T06:50:30.670Z,979.89
2019-01-28T06:51:12.738Z,979.88
2019-01-28T06:51:53.146Z,979.93
2019-01-28T06:52:33.626Z,979.81
2019-01-28T06:53:14.039Z,979.82
2019-01-28T06:53:55.001Z,979.86
2019-01-28T06:54:36.025Z,979.84
2019-01-28T06:55:16.958Z,979.89
2019-01-28T06:56:04.870Z,980.02
2019-01-28T06:56:45.529Z,980
2019-01-28T06:57:26.264Z,979.9
2019-01-28T06:58:07.560Z,979.95
2019-01-28T06:58:49.772Z,979.95
2019-01-28T06:59:30.004Z,979.99
2019-01-28T07:00:10.616Z,980.01
2019-01-28T07:00:51.158Z,980.03
2019-01-28T07:01:32.938Z,980.05
2019-01-28T07:02:13.898Z,980.03
2019-01-28T07:02:54.845Z,979.97
2019-01-28T07:03:35.650Z,980.05
2019-01-28T07:04:16.482Z,979.96
2019-01-28T07:04:58.130Z,980.01
2019-01-28T07:05:39.368Z,979.97
2019-01-28T07:06:21.147Z,979.78
2019-01-28T07:07:01.791Z,980.1
2019-01-28T07:07:42.354Z,979.95
2019-01-28T07:08:23.219Z,980
2019-01-28T07:09:06.735Z,979.96
2019-01-28T07:09:47.684Z,979.99
2019-01-28T07:10:29.187Z,980.11
2019-01-28T07:11:10.174Z,980.13
2019-01-28T07:11:51.342Z,980.1
2019-01-28T07:12:33.127Z,980.18
2019-01-28T07:13:15.705Z,980.17
2019-01-28T07:13:56.647Z,979.99
2019-01-28T07:14:38.184Z,980.1
2019-01-28T07:15:20.198Z,980.09
2019-01-28T07:16:01.769Z,980.22
2019-01-28T07:16:42.946Z,980.19
2019-01-28T07:17:25.270Z,980.18
2019-01-28T07:18:05.871Z,980.24
2019-01-28T07:18:47.143Z,980.35
2019-01-28T07:19:29.339Z,980.23
2019-01-28T07:20:12.977Z,980.26
2019-01-28T07:20:54.086Z,980.29
2019-01-28T07:21:34.921Z,980.04
2019-01-28T07:22:15.730Z,980.24
2019-01-28T07:22:59.448Z,980.2
2019-01-28T07:23:42.522Z,980.2
2019-01-28T07:24:23.356Z,980.34
2019-01-28T07:25:03.891Z,980.38
2019-01-28T07:25:45.423Z,980.4
2019-01-28T07:26:26.191Z,980.36
2019-01-28T07:27:07.038Z,980.39
2019-01-28T07:27:48.900Z,980.43
2019-01-28T07:28:29.667Z,980.28
2019-01-28T07:29:10.648Z,980.46
2019-01-28T07:29:51.892Z,980.5
2019-01-28T07:30:32.594Z,980.48
2019-01-28T07:31:12.990Z,980.29
2019-01-28T07:31:54.171Z,980.38
2019-01-28T07:32:35.585Z,980.52
2019-01-28T07:33:17.014Z,980.51
2019-01-28T07:33:58.430Z,980.6
2019-01-28T07:34:41.900Z,980.57
2019-01-28T07:35:21.842Z,980.58
2019-01-28T07:36:02.459Z,980.51
2019-01-28T07:36:43.554Z,980.5
2019-01-28T07:37:24.990Z,980.38
2019-01-28T07:38:05.902Z,980.65
2019-01-28T07:38:46.818Z,980.66
2019-01-28T07:39:27.836Z,980.73
2019-01-28T07:40:08.572Z,980.52
2019-01-28T07:40:49.570Z,980.64
2019-01-28T07:41:33.640Z,980.6
2019-01-28T07:42:15.027Z,980.67
2019-01-28T07:42:55.938Z,980.72
2019-01-28T07:43:39.010Z,980.59
2019-01-28T07:44:19.928Z,980.63
2019-01-28T07:45:00.534Z,980.76
2019-01-28T07:45:45.220Z,980.82
2019-01-28T07:46:21.927Z,980.67
2019-01-28T07:47:06.180Z,980.62
2019-01-28T07:47:46.969Z,980.79
2019-01-28T07:48:28.141Z,980.7
2019-01-28T07:49:09.628Z,980.73
2019-01-28T07:49:52.645Z,980.85
2019-01-28T07:50:33.298Z,980.82
2019-01-28T07:51:14.534Z,980.83
2019-01-28T07:51:56.049Z,980.83
2019-01-28T07:52:37.588Z,980.74
2019-01-28T07:53:19.018Z,980.73
2019-01-28T07:54:00.253Z,980.66
2019-01-28T07:54:43.847Z,980.83
2019-01-28T07:55:26.459Z,980.77
2019-01-28T07:56:07.507Z,980.83
2019-01-28T07:56:48.923Z,980.69
2019-01-28T07:57:31.739Z,980.85
2019-01-28T07:58:14.243Z,980.87
2019-01-28T07:58:55.154Z,980.88
2019-01-28T07:59:36.164Z,980.91
2019-01-28T08:00:19.395Z,980.93
2019-01-28T08:02:36.643Z,980.92
2019-01-28T08:03:23.374Z,980.94
2019-01-28T08:04:08.966Z,980.89
2019-01-28T08:04:50.912Z,980.98
2019-01-28T08:05:32.441Z,980.93
2019-01-28T08:06:18.331Z,980.78
2019-01-28T08:07:08.324Z,980.88
2019-01-28T08:09:56.327Z,980.85
2019-01-28T08:17:13.742Z,981.03
2019-01-28T08:24:22.796Z,981.14
2019-01-28T08:25:20.820Z,981.03
2019-01-28T08:28:41.162Z,981.39
2019-01-28T08:29:35.041Z,981.39
2019-01-28T08:30:37.382Z,981.3
2019-01-28T08:31:36.495Z,981.28
2019-01-28T08:32:38.736Z,981.19
2019-01-28T08:34:44.120Z,981.29
2019-01-28T08:35:53.698Z,981.31
2019-01-28T08:43:55.584Z,981.42
2019-01-28T08:44:39.949Z,981.5
2019-01-28T08:45:22.747Z,981.52
2019-01-28T08:46:07.462Z,981.52
2019-01-28T08:48:29.184Z,981.6
2019-01-28T08:49:12.332Z,981.48
2019-01-28T08:49:59.901Z,981.49
2019-01-28T08:50:42.674Z,981.6
2019-01-28T08:51:25.254Z,981.39
2019-01-28T08:52:10.239Z,981.54
2019-01-28T08:52:54.718Z,981.62
2019-01-28T08:53:42.365Z,981.58
2019-01-28T08:54:26.788Z,981.49
2019-01-28T08:55:08.709Z,981.66
2019-01-28T08:55:57.367Z,981.62
2019-01-28T08:56:51.096Z,981.53
2019-01-28T08:57:37.347Z,981.52
2019-01-28T09:02:06.310Z,981.51
2019-01-28T09:05:30.959Z,981.75
2019-01-28T09:06:20.023Z,981.66
2019-01-28T09:07:01.839Z,981.56
2019-01-28T09:07:44.288Z,981.75
2019-01-28T09:10:05.865Z,981.77
2019-01-28T09:10:53.105Z,981.69
2019-01-28T09:11:41.323Z,981.81
2019-01-28T09:12:29.493Z,981.82
2019-01-28T09:13:14.873Z,981.71
2019-01-28T09:14:02.972Z,981.85
2019-01-28T09:14:48.132Z,981.82
2019-01-28T09:15:34.910Z,981.8
2019-01-28T09:17:12.824Z,981.93
2019-01-28T09:27:32.073Z,981.94
2019-01-28T09:28:16.905Z,982.06
2019-01-28T09:29:02.360Z,982.07
2019-01-28T09:29:48.414Z,982.1
2019-01-28T09:30:31.229Z,982.15
2019-01-28T09:31:11.668Z,982.09
2019-01-28T09:31:56.458Z,982.13
2019-01-28T09:32:38.106Z,982.29
2019-01-28T09:33:22.848Z,982.14
2019-01-28T09:34:09.890Z,982.14
2019-01-28T09:34:53.553Z,982.17
2019-01-28T09:35:39.333Z,982.19
2019-01-28T09:36:24.304Z,982.29
2019-01-28T09:37:14.261Z,982.21
2019-01-28T09:37:53.861Z,982.24
2019-01-28T09:38:37.031Z,982.25
2019-01-28T09:39:17.426Z,982.28
2019-01-28T09:40:01.804Z,982.37
2019-01-28T09:40:44.934Z,982.43
2019-01-28T09:41:28.494Z,982.38
2019-01-28T09:44:28.881Z,982.41
2019-01-28T09:47:58.191Z,982.56
2019-01-28T09:49:14.023Z,982.6
2019-01-28T09:50:13.675Z,982.33
2019-01-28T09:51:16.067Z,982.65
2019-01-28T09:52:13.511Z,982.7
2019-01-28T09:53:12.810Z,982.75
2019-01-28T09:54:17.929Z,982.74
2019-01-28T09:55:20.200Z,982.66
2019-01-28T09:56:17.510Z,982.76
2019-01-28T09:57:18.387Z,982.7
2019-01-28T10:03:37.336Z,982.96
2019-01-28T10:07:57.551Z,983.05
2019-01-28T10:09:01.492Z,983.05
2019-01-28T10:10:02.229Z,983.05
2019-01-28T10:11:28.864Z,983.14
2019-01-28T10:12:43.496Z,983.09
2019-01-28T10:17:46.535Z,983.27
2019-01-28T10:18:31.396Z,983.32
2019-01-28T10:19:16.013Z,983.39
2019-01-28T10:20:01.267Z,983.33
2019-01-28T10:20:44.691Z,983.37
2019-01-28T10:21:23.631Z,983.31
2019-01-28T10:22:12.364Z,983.38
2019-01-28T10:22:55.847Z,983.47
2019-01-28T10:23:38.805Z,983.39
2019-01-28T10:24:20.722Z,983.47
2019-01-28T10:25:03.389Z,983.46
2019-01-28T10:25:45.767Z,983.52
2019-01-28T10:26:29.835Z,983.52
2019-01-28T10:27:10.628Z,983.58
2019-01-28T10:27:54.067Z,983.56
2019-01-28T10:28:34.397Z,983.55
2019-01-28T10:29:15.041Z,983.61
2019-01-28T11:08:49.721Z,984.34
2019-01-28T11:09:49.927Z,984.35
2019-01-28T11:12:03.703Z,984.39
2019-01-28T11:12:58.434Z,984.55
2019-01-28T11:13:53.769Z,984.43
2019-01-28T11:14:53.811Z,984.43
2019-01-28T11:15:50.714Z,984.45
2019-01-28T11:16:46.908Z,984.48
2019-01-28T11:17:45.147Z,984.41
2019-01-28T11:20:24.350Z,984.55
2019-01-28T11:21:29.619Z,984.43
2019-01-28T11:22:46.924Z,984.51
2019-01-28T11:24:48.403Z,984.61
2019-01-28T11:25:41.460Z,984.61
2019-01-28T11:27:52.788Z,984.67
2019-01-28T11:28:48.906Z,984.77
2019-01-28T11:29:40.929Z,984.76
2019-01-28T11:30:35.147Z,984.61
2019-01-28T11:33:19.623Z,984.66
2019-01-28T11:34:00.003Z,984.69
2019-01-28T11:34:40.620Z,984.7
2019-01-28T11:35:22.476Z,984.75
2019-01-28T11:36:05.229Z,984.87
2019-01-28T11:36:44.778Z,984.69
2019-01-28T11:37:25.725Z,984.81
2019-01-28T11:38:07.077Z,984.64
2019-01-28T11:38:47.812Z,984.82
2019-01-28T11:39:28.942Z,984.9
2019-01-28T11:40:09.995Z,984.8
2019-01-28T11:40:50.857Z,984.69
2019-01-28T11:41:31.293Z,984.93
2019-01-28T11:42:12.180Z,984.69
2019-01-28T11:42:52.991Z,984.88
2019-01-28T11:43:35.123Z,984.95
2019-01-28T11:44:15.667Z,984.73
2019-01-28T11:44:56.203Z,984.94
2019-01-28T11:45:36.785Z,984.88
2019-01-28T11:46:17.464Z,984.78
2019-01-28T11:49:05.683Z,984.99
2019-01-28T11:51:22.985Z,985.17
2019-01-28T11:52:03.474Z,985.18
2019-01-28T11:52:43.967Z,984.79
2019-01-28T11:53:24.985Z,985.14
2019-01-28T11:54:05.393Z,984.98
2019-01-28T11:54:45.902Z,985.1
2019-01-28T11:55:27.215Z,985.03
2019-01-28T11:56:07.779Z,985.03
2019-01-28T11:56:48.062Z,984.92
2019-01-28T11:57:28.568Z,985.13
2019-01-28T11:58:09.443Z,985.2
2019-01-28T11:58:49.622Z,985.25
2019-01-28T11:59:30.090Z,985.29
2019-01-28T12:00:10.839Z,985.3
2019-01-28T12:00:51.554Z,985.18
2019-01-28T12:01:31.968Z,985.29
2019-01-28T12:02:12.517Z,985.38
2019-01-28T12:02:53.022Z,985.29
2019-01-28T12:03:34.443Z,985.4
2019-01-28T12:04:15.797Z,985.31
2019-01-28T12:04:55.980Z,985.35
2019-01-28T12:05:36.472Z,985.37
2019-01-28T12:06:23.697Z,985.39
2019-01-28T12:07:04.289Z,985.39
2019-01-28T12:07:45.510Z,985.41
2019-01-28T12:08:25.978Z,985.27
2019-01-28T12:09:06.794Z,985.5
2019-01-28T12:09:47.559Z,985.49
2019-01-28T12:10:28.639Z,985.45